WLW1005 LEPA-LEMG
Flight info
| Callsign | WLW1005 |
|---|---|
| Flight time | 1h 18m |
| Altitude | 33000 |
| Route | BAVER M603 ALT N851 UNTOS/N0459F340 N865 VIBAS |
| Aircraft | T154/M-SDGRWY/S |
Departure
| Time | 2026-05-06 17:32 |
|---|---|
| Airport | Palma de Mallorca Airport (LEPA) |
Arrival
| Time | 2026-05-06 18:50 |
|---|---|
| Airport | Málaga-Costa del Sol Airport (LEMG) |
| Time | Latitude | Longitude | Altitude | Speed | Heading |
|---|---|---|---|---|---|
| 2026-05-06 16:58 | 39.54695 | 2.73407 | 41 ft | 0 kts | 238° |
| 2026-05-06 17:16 | 39.54697 | 2.73410 | 41 ft | 2 kts | 239° |
| 2026-05-06 17:16 | 39.54705 | 2.73427 | 41 ft | 2 kts | 240° |
| 2026-05-06 17:16 | 39.54714 | 2.73447 | 41 ft | 3 kts | 240° |
| 2026-05-06 17:17 | 39.54734 | 2.73482 | 41 ft | 5 kts | 229° |
| 2026-05-06 17:17 | 39.54744 | 2.73495 | 41 ft | 0 kts | 226° |
| 2026-05-06 17:26 | 39.54743 | 2.73494 | 41 ft | 0 kts | 225° |
| 2026-05-06 17:27 | 39.54727 | 2.73484 | 41 ft | 4 kts | 189° |
| 2026-05-06 17:27 | 39.54699 | 2.73493 | 41 ft | 0 kts | 152° |
| 2026-05-06 17:27 | 39.54680 | 2.73506 | 41 ft | 5 kts | 151° |
| 2026-05-06 17:27 | 39.54635 | 2.73547 | 41 ft | 9 kts | 122° |
| 2026-05-06 17:28 | 39.54594 | 2.73632 | 41 ft | 12 kts | 158° |
| 2026-05-06 17:28 | 39.54528 | 2.73578 | 41 ft | 12 kts | 239° |
| 2026-05-06 17:28 | 39.54478 | 2.73470 | 41 ft | 15 kts | 239° |
| 2026-05-06 17:28 | 39.54419 | 2.73346 | 41 ft | 17 kts | 238° |
| 2026-05-06 17:29 | 39.54352 | 2.73203 | 41 ft | 19 kts | 238° |
| 2026-05-06 17:29 | 39.54279 | 2.73067 | 41 ft | 15 kts | 200° |
| 2026-05-06 17:29 | 39.54232 | 2.73079 | 41 ft | 0 kts | 132° |
| 2026-05-06 17:30 | 39.54225 | 2.73095 | 41 ft | 5 kts | 111° |
| 2026-05-06 17:30 | 39.54215 | 2.73167 | 41 ft | 10 kts | 95° |
| 2026-05-06 17:30 | 39.54211 | 2.73271 | 41 ft | 11 kts | 92° |
| 2026-05-06 17:30 | 39.54224 | 2.73376 | 41 ft | 12 kts | 65° |
| 2026-05-06 17:31 | 39.54253 | 2.73441 | 41 ft | 0 kts | 59° |
| 2026-05-06 17:31 | 39.54298 | 2.73538 | 41 ft | 37 kts | 58° |
| 2026-05-06 17:32 | 39.54553 | 2.74073 | 41 ft | 100 kts | 59° |
| 2026-05-06 17:32 | 39.55017 | 2.75053 | 42 ft | 152 kts | 58° |
| 2026-05-06 17:32 | 39.55617 | 2.76306 | 323 ft | 168 kts | 57° |
| 2026-05-06 17:32 | 39.56258 | 2.77589 | 778 ft | 172 kts | 57° |
| 2026-05-06 17:33 | 39.56932 | 2.78866 | 1277 ft | 173 kts | 54° |
| 2026-05-06 17:33 | 39.57666 | 2.80117 | 1681 ft | 182 kts | 53° |
| 2026-05-06 17:33 | 39.58512 | 2.81502 | 1779 ft | 210 kts | 53° |
| 2026-05-06 17:33 | 39.59519 | 2.83109 | 1805 ft | 247 kts | 51° |
| 2026-05-06 17:34 | 39.60614 | 2.84779 | 2652 ft | 244 kts | 51° |
| 2026-05-06 17:34 | 39.61691 | 2.86412 | 3583 ft | 238 kts | 50° |
| 2026-05-06 17:34 | 39.62779 | 2.88034 | 4240 ft | 244 kts | 49° |
| 2026-05-06 17:34 | 39.63906 | 2.89664 | 4968 ft | 246 kts | 47° |
| 2026-05-06 17:35 | 39.65145 | 2.91282 | 5478 ft | 259 kts | 40° |
| 2026-05-06 17:35 | 39.66761 | 2.92453 | 5765 ft | 277 kts | 12° |
| 2026-05-06 17:35 | 39.68724 | 2.92537 | 6047 ft | 294 kts | 346° |
| 2026-05-06 17:36 | 39.72704 | 2.90556 | 6844 ft | 319 kts | 331° |
| 2026-05-06 17:36 | 39.74402 | 2.88750 | 7636 ft | 315 kts | 305° |
| 2026-05-06 17:36 | 39.75292 | 2.86268 | 8648 ft | 303 kts | 279° |
| 2026-05-06 17:36 | 39.75268 | 2.83609 | 9575 ft | 296 kts | 255° |
| 2026-05-06 17:37 | 39.74362 | 2.81277 | 10386 ft | 295 kts | 229° |
| 2026-05-06 17:37 | 39.72839 | 2.79535 | 11167 ft | 294 kts | 219° |
| 2026-05-06 17:37 | 39.71197 | 2.77866 | 11685 ft | 303 kts | 221° |
| 2026-05-06 17:37 | 39.69564 | 2.76099 | 12147 ft | 312 kts | 222° |
| 2026-05-06 17:38 | 39.67897 | 2.74235 | 12567 ft | 322 kts | 223° |
| 2026-05-06 17:38 | 39.66196 | 2.72281 | 12940 ft | 333 kts | 224° |
| 2026-05-06 17:38 | 39.64516 | 2.70198 | 13561 ft | 333 kts | 230° |
| 2026-05-06 17:38 | 39.63128 | 2.67849 | 14231 ft | 332 kts | 239° |
| 2026-05-06 17:39 | 39.61962 | 2.65216 | 14815 ft | 335 kts | 243° |
| 2026-05-06 17:39 | 39.60902 | 2.62544 | 15421 ft | 336 kts | 244° |
| 2026-05-06 17:39 | 39.59874 | 2.59853 | 15997 ft | 338 kts | 245° |
| 2026-05-06 17:39 | 39.58850 | 2.57098 | 16629 ft | 339 kts | 245° |
| 2026-05-06 17:40 | 39.57845 | 2.54355 | 17170 ft | 342 kts | 245° |
| 2026-05-06 17:40 | 39.56821 | 2.51548 | 17739 ft | 343 kts | 245° |
| 2026-05-06 17:40 | 39.55799 | 2.48741 | 18318 ft | 344 kts | 245° |
| 2026-05-06 17:40 | 39.54789 | 2.45961 | 18839 ft | 347 kts | 245° |
| 2026-05-06 17:41 | 39.53759 | 2.43132 | 19395 ft | 348 kts | 245° |
| 2026-05-06 17:41 | 39.52731 | 2.40306 | 19916 ft | 350 kts | 245° |
| 2026-05-06 17:41 | 39.51688 | 2.37443 | 20414 ft | 353 kts | 246° |
| 2026-05-06 17:41 | 39.50640 | 2.34567 | 20953 ft | 353 kts | 245° |
| 2026-05-06 17:42 | 39.49598 | 2.31697 | 21356 ft | 358 kts | 245° |
| 2026-05-06 17:42 | 39.48543 | 2.28791 | 21880 ft | 359 kts | 245° |
| 2026-05-06 17:42 | 39.47470 | 2.25850 | 22405 ft | 360 kts | 245° |
| 2026-05-06 17:42 | 39.46408 | 2.22947 | 22881 ft | 362 kts | 245° |
| 2026-05-06 17:43 | 39.45326 | 2.19990 | 23355 ft | 363 kts | 245° |
| 2026-05-06 17:43 | 39.44246 | 2.17047 | 23871 ft | 364 kts | 245° |
| 2026-05-06 17:43 | 39.43168 | 2.14108 | 24331 ft | 366 kts | 245° |
| 2026-05-06 17:43 | 39.42071 | 2.11123 | 24808 ft | 368 kts | 245° |
| 2026-05-06 17:44 | 39.40968 | 2.08125 | 25262 ft | 370 kts | 245° |
| 2026-05-06 17:44 | 39.39871 | 2.05143 | 25716 ft | 372 kts | 245° |
| 2026-05-06 17:44 | 39.38746 | 2.02091 | 26188 ft | 373 kts | 245° |
| 2026-05-06 17:44 | 39.37638 | 1.99088 | 26620 ft | 376 kts | 245° |
| 2026-05-06 17:45 | 39.36499 | 1.96005 | 27060 ft | 378 kts | 245° |
| 2026-05-06 17:45 | 39.35382 | 1.92983 | 27502 ft | 380 kts | 245° |
| 2026-05-06 17:45 | 39.34242 | 1.89902 | 27946 ft | 381 kts | 245° |
| 2026-05-06 17:45 | 39.33087 | 1.86785 | 28355 ft | 384 kts | 245° |
| 2026-05-06 17:46 | 39.31932 | 1.83671 | 28793 ft | 385 kts | 245° |
| 2026-05-06 17:46 | 39.30785 | 1.80583 | 29218 ft | 387 kts | 245° |
| 2026-05-06 17:46 | 39.29615 | 1.77435 | 29634 ft | 389 kts | 245° |
| 2026-05-06 17:46 | 39.28437 | 1.74269 | 30048 ft | 391 kts | 245° |
| 2026-05-06 17:47 | 39.27263 | 1.71116 | 30467 ft | 393 kts | 245° |
| 2026-05-06 17:47 | 39.26078 | 1.67938 | 30830 ft | 395 kts | 245° |
| 2026-05-06 17:47 | 39.24883 | 1.64735 | 31221 ft | 397 kts | 245° |
| 2026-05-06 17:47 | 39.23687 | 1.61529 | 31605 ft | 400 kts | 245° |
| 2026-05-06 17:48 | 39.22484 | 1.58311 | 31957 ft | 402 kts | 245° |
| 2026-05-06 17:48 | 39.21268 | 1.55062 | 32319 ft | 404 kts | 245° |
| 2026-05-06 17:48 | 39.20041 | 1.51788 | 32723 ft | 405 kts | 244° |
| 2026-05-06 17:48 | 39.18818 | 1.48528 | 33049 ft | 407 kts | 244° |
| 2026-05-06 17:49 | 39.16325 | 1.41895 | 33382 ft | 417 kts | 244° |
| 2026-05-06 17:49 | 39.13768 | 1.35110 | 33371 ft | 428 kts | 245° |
| 2026-05-06 17:50 | 39.11153 | 1.28152 | 33365 ft | 432 kts | 244° |
| 2026-05-06 17:50 | 39.08534 | 1.21223 | 33261 ft | 435 kts | 244° |
| 2026-05-06 17:51 | 39.05904 | 1.14285 | 33261 ft | 426 kts | 244° |
| 2026-05-06 17:51 | 39.03334 | 1.07524 | 33320 ft | 418 kts | 244° |
| 2026-05-06 17:52 | 39.00796 | 1.00862 | 33295 ft | 415 kts | 244° |
| 2026-05-06 17:52 | 38.98264 | 0.94235 | 33303 ft | 413 kts | 244° |
| 2026-05-06 17:53 | 38.95746 | 0.87652 | 33302 ft | 412 kts | 244° |
| 2026-05-06 17:53 | 38.93231 | 0.81097 | 33305 ft | 410 kts | 244° |
| 2026-05-06 17:54 | 38.90697 | 0.74505 | 33305 ft | 409 kts | 244° |
| 2026-05-06 17:54 | 38.88161 | 0.67979 | 33285 ft | 409 kts | 244° |
| 2026-05-06 17:55 | 38.85908 | 0.61314 | 33303 ft | 408 kts | 250° |
| 2026-05-06 17:55 | 38.83898 | 0.54568 | 33303 ft | 407 kts | 248° |
| 2026-05-06 17:56 | 38.81759 | 0.47818 | 33301 ft | 407 kts | 244° |
| 2026-05-06 17:56 | 38.78632 | 0.41853 | 33352 ft | 405 kts | 237° |
| 2026-05-06 17:57 | 38.75509 | 0.35831 | 33306 ft | 406 kts | 238° |
| 2026-05-06 17:57 | 38.72394 | 0.29804 | 33290 ft | 407 kts | 237° |
| 2026-05-06 17:58 | 38.69282 | 0.23791 | 33289 ft | 408 kts | 237° |
| 2026-05-06 17:58 | 38.66151 | 0.17762 | 33283 ft | 408 kts | 237° |
| 2026-05-06 17:59 | 38.62996 | 0.11698 | 33284 ft | 408 kts | 237° |
| 2026-05-06 17:59 | 38.59867 | 0.05698 | 33284 ft | 408 kts | 237° |
| 2026-05-06 18:00 | 38.56714 | -0.00336 | 33279 ft | 409 kts | 237° |
| 2026-05-06 18:00 | 38.53558 | -0.06367 | 33278 ft | 409 kts | 237° |
| 2026-05-06 18:01 | 38.50388 | -0.12411 | 33280 ft | 409 kts | 237° |
| 2026-05-06 18:01 | 38.47245 | -0.18393 | 33280 ft | 409 kts | 237° |
| 2026-05-06 18:02 | 38.44067 | -0.24432 | 33285 ft | 409 kts | 237° |
| 2026-05-06 18:02 | 38.40906 | -0.30425 | 33295 ft | 408 kts | 237° |
| 2026-05-06 18:03 | 38.37759 | -0.36383 | 33300 ft | 407 kts | 237° |
| 2026-05-06 18:03 | 38.34600 | -0.42351 | 33301 ft | 407 kts | 237° |
| 2026-05-06 18:04 | 38.31437 | -0.48316 | 33300 ft | 406 kts | 237° |
| 2026-05-06 18:04 | 38.28283 | -0.54256 | 33301 ft | 406 kts | 237° |
| 2026-05-06 18:05 | 38.25433 | -0.60409 | 33285 ft | 405 kts | 248° |
| 2026-05-06 18:05 | 38.23240 | -0.66950 | 33276 ft | 405 kts | 245° |
| 2026-05-06 18:06 | 38.20910 | -0.73440 | 33270 ft | 405 kts | 245° |
| 2026-05-06 18:06 | 38.18555 | -0.79969 | 33280 ft | 405 kts | 245° |
| 2026-05-06 18:07 | 38.16211 | -0.86440 | 33285 ft | 405 kts | 245° |
| 2026-05-06 18:07 | 38.13860 | -0.92912 | 33293 ft | 405 kts | 245° |
| 2026-05-06 18:08 | 38.11489 | -0.99424 | 33291 ft | 405 kts | 245° |
| 2026-05-06 18:08 | 38.09123 | -1.05910 | 33295 ft | 405 kts | 245° |
| 2026-05-06 18:09 | 38.06764 | -1.12361 | 33296 ft | 405 kts | 245° |
| 2026-05-06 18:09 | 38.04388 | -1.18845 | 33295 ft | 405 kts | 245° |
| 2026-05-06 18:10 | 38.02023 | -1.25287 | 33294 ft | 405 kts | 245° |
| 2026-05-06 18:10 | 37.99646 | -1.31748 | 33294 ft | 404 kts | 245° |
| 2026-05-06 18:11 | 37.97664 | -1.37125 | 33301 ft | 404 kts | 245° |
| 2026-05-06 18:11 | 37.94893 | -1.44623 | 33297 ft | 404 kts | 245° |
| 2026-05-06 18:12 | 37.92524 | -1.51021 | 33301 ft | 403 kts | 245° |
| 2026-05-06 18:12 | 37.90144 | -1.57433 | 33305 ft | 403 kts | 245° |
| 2026-05-06 18:13 | 37.87737 | -1.63819 | 33290 ft | 403 kts | 244° |
| 2026-05-06 18:13 | 37.85338 | -1.70244 | 33264 ft | 405 kts | 244° |
| 2026-05-06 18:14 | 37.82939 | -1.76671 | 33292 ft | 405 kts | 244° |
| 2026-05-06 18:14 | 37.80529 | -1.83107 | 33307 ft | 405 kts | 244° |
| 2026-05-06 18:15 | 37.78124 | -1.89513 | 33316 ft | 405 kts | 244° |
| 2026-05-06 18:15 | 37.75710 | -1.95938 | 33324 ft | 405 kts | 244° |
| 2026-05-06 18:16 | 37.73289 | -2.02356 | 33328 ft | 405 kts | 244° |
| 2026-05-06 18:16 | 37.70868 | -2.08765 | 33329 ft | 405 kts | 244° |
| 2026-05-06 18:17 | 37.68454 | -2.15144 | 33335 ft | 404 kts | 244° |
| 2026-05-06 18:17 | 37.66037 | -2.21517 | 33334 ft | 404 kts | 244° |
| 2026-05-06 18:18 | 37.63602 | -2.27923 | 33335 ft | 404 kts | 244° |
| 2026-05-06 18:18 | 37.61167 | -2.34296 | 33336 ft | 404 kts | 244° |
| 2026-05-06 18:19 | 37.58746 | -2.40664 | 33339 ft | 403 kts | 244° |
| 2026-05-06 18:19 | 37.56317 | -2.47030 | 33338 ft | 403 kts | 244° |
| 2026-05-06 18:20 | 37.53892 | -2.53377 | 33340 ft | 403 kts | 244° |
| 2026-05-06 18:20 | 37.51450 | -2.59738 | 33336 ft | 403 kts | 244° |
| 2026-05-06 18:21 | 37.49014 | -2.66075 | 33324 ft | 403 kts | 244° |
| 2026-05-06 18:21 | 37.46574 | -2.72441 | 33307 ft | 404 kts | 243° |
| 2026-05-06 18:22 | 37.44136 | -2.78767 | 33322 ft | 404 kts | 243° |
| 2026-05-06 18:22 | 37.41676 | -2.85136 | 33329 ft | 404 kts | 243° |
| 2026-05-06 18:23 | 37.39221 | -2.91449 | 33332 ft | 404 kts | 243° |
| 2026-05-06 18:23 | 37.36758 | -2.97806 | 33334 ft | 405 kts | 243° |
| 2026-05-06 18:24 | 37.34291 | -3.04148 | 33334 ft | 404 kts | 243° |
| 2026-05-06 18:24 | 37.31814 | -3.10502 | 33337 ft | 404 kts | 243° |
| 2026-05-06 18:25 | 37.29341 | -3.16817 | 33328 ft | 404 kts | 243° |
| 2026-05-06 18:25 | 37.26878 | -3.23117 | 33332 ft | 404 kts | 243° |
| 2026-05-06 18:26 | 37.25747 | -3.26293 | 33169 ft | 399 kts | 251° |
| 2026-05-06 18:26 | 37.25355 | -3.29741 | 32816 ft | 401 kts | 268° |
| 2026-05-06 18:26 | 37.25884 | -3.33190 | 32425 ft | 409 kts | 285° |
| 2026-05-06 18:26 | 37.27292 | -3.36314 | 32043 ft | 420 kts | 301° |
| 2026-05-06 18:27 | 37.29101 | -3.39170 | 31778 ft | 413 kts | 298° |
| 2026-05-06 18:27 | 37.30623 | -3.42147 | 31532 ft | 401 kts | 292° |
| 2026-05-06 18:27 | 37.31948 | -3.45189 | 31113 ft | 398 kts | 291° |
| 2026-05-06 18:27 | 37.33240 | -3.48271 | 30559 ft | 399 kts | 291° |
| 2026-05-06 18:28 | 37.34513 | -3.51363 | 30042 ft | 399 kts | 290° |
| 2026-05-06 18:28 | 37.35757 | -3.54440 | 29539 ft | 399 kts | 290° |
| 2026-05-06 18:28 | 37.37018 | -3.57575 | 29007 ft | 399 kts | 290° |
| 2026-05-06 18:28 | 37.38250 | -3.60666 | 28510 ft | 396 kts | 288° |
| 2026-05-06 18:29 | 37.38959 | -3.63933 | 27960 ft | 383 kts | 270° |
| 2026-05-06 18:29 | 37.38753 | -3.67219 | 27375 ft | 376 kts | 252° |
| 2026-05-06 18:29 | 37.37686 | -3.70167 | 26781 ft | 374 kts | 236° |
| 2026-05-06 18:29 | 37.36243 | -3.72803 | 26310 ft | 372 kts | 237° |
| 2026-05-06 18:30 | 37.35008 | -3.75583 | 25858 ft | 369 kts | 243° |
| 2026-05-06 18:30 | 37.33910 | -3.78487 | 25388 ft | 367 kts | 244° |
| 2026-05-06 18:30 | 37.32844 | -3.81377 | 24887 ft | 365 kts | 244° |
| 2026-05-06 18:30 | 37.31795 | -3.84268 | 24365 ft | 364 kts | 244° |
| 2026-05-06 18:31 | 37.30763 | -3.87155 | 23853 ft | 361 kts | 245° |
| 2026-05-06 18:31 | 37.29741 | -3.90031 | 23334 ft | 359 kts | 245° |
| 2026-05-06 18:31 | 37.28727 | -3.92887 | 22816 ft | 357 kts | 245° |
| 2026-05-06 18:31 | 37.27726 | -3.95708 | 22281 ft | 356 kts | 245° |
| 2026-05-06 18:32 | 37.26727 | -3.98524 | 21758 ft | 354 kts | 245° |
| 2026-05-06 18:32 | 37.25726 | -4.01340 | 21204 ft | 353 kts | 245° |
| 2026-05-06 18:32 | 37.24726 | -4.04155 | 20644 ft | 353 kts | 245° |
| 2026-05-06 18:32 | 37.23735 | -4.06943 | 20082 ft | 352 kts | 245° |
| 2026-05-06 18:33 | 37.22746 | -4.09723 | 19518 ft | 351 kts | 245° |
| 2026-05-06 18:33 | 37.21753 | -4.12510 | 18950 ft | 351 kts | 245° |
| 2026-05-06 18:33 | 37.20790 | -4.15298 | 18366 ft | 350 kts | 251° |
| 2026-05-06 18:33 | 37.20413 | -4.18317 | 17706 ft | 353 kts | 270° |
| 2026-05-06 18:34 | 37.20556 | -4.21381 | 17117 ft | 352 kts | 271° |
| 2026-05-06 18:34 | 37.20605 | -4.24425 | 16559 ft | 349 kts | 268° |
| 2026-05-06 18:34 | 37.20568 | -4.27454 | 15999 ft | 347 kts | 268° |
| 2026-05-06 18:34 | 37.20535 | -4.30460 | 15443 ft | 345 kts | 268° |
| 2026-05-06 18:35 | 37.20504 | -4.33418 | 14895 ft | 342 kts | 268° |
| 2026-05-06 18:35 | 37.20468 | -4.36391 | 14339 ft | 339 kts | 268° |
| 2026-05-06 18:35 | 37.20429 | -4.39348 | 13783 ft | 337 kts | 268° |
| 2026-05-06 18:35 | 37.20390 | -4.42234 | 13236 ft | 334 kts | 268° |
| 2026-05-06 18:36 | 37.20351 | -4.45131 | 12689 ft | 331 kts | 268° |
| 2026-05-06 18:36 | 37.20311 | -4.47985 | 12151 ft | 328 kts | 268° |
| 2026-05-06 18:36 | 37.20270 | -4.50823 | 11614 ft | 325 kts | 267° |
| 2026-05-06 18:36 | 37.20229 | -4.53649 | 11068 ft | 323 kts | 268° |
| 2026-05-06 18:37 | 37.20187 | -4.56461 | 10530 ft | 321 kts | 268° |
| 2026-05-06 18:37 | 37.20159 | -4.58322 | 10170 ft | 319 kts | 268° |
| 2026-05-06 18:37 | 37.20103 | -4.61991 | 9470 ft | 317 kts | 268° |
| 2026-05-06 18:37 | 37.20060 | -4.64724 | 8943 ft | 315 kts | 268° |
| 2026-05-06 18:38 | 37.20018 | -4.67467 | 8339 ft | 315 kts | 268° |
| 2026-05-06 18:38 | 37.19974 | -4.70211 | 7725 ft | 316 kts | 268° |
| 2026-05-06 18:38 | 37.19942 | -4.72955 | 7216 ft | 311 kts | 269° |
| 2026-05-06 18:38 | 37.19938 | -4.75556 | 7286 ft | 288 kts | 269° |
| 2026-05-06 18:39 | 37.19727 | -4.77951 | 7095 ft | 274 kts | 248° |
| 2026-05-06 18:39 | 37.18737 | -4.79841 | 7149 ft | 250 kts | 219° |
| 2026-05-06 18:39 | 37.17261 | -4.80791 | 7070 ft | 232 kts | 187° |
| 2026-05-06 18:40 | 37.14249 | -4.80321 | 7128 ft | 219 kts | 172° |
| 2026-05-06 18:40 | 37.12717 | -4.80202 | 7173 ft | 225 kts | 178° |
| 2026-05-06 18:40 | 37.11113 | -4.80174 | 7212 ft | 236 kts | 178° |
| 2026-05-06 18:40 | 37.09454 | -4.80136 | 7231 ft | 243 kts | 178° |
| 2026-05-06 18:41 | 37.07731 | -4.80106 | 7231 ft | 248 kts | 178° |
| 2026-05-06 18:41 | 37.06004 | -4.80084 | 7215 ft | 250 kts | 178° |
| 2026-05-06 18:41 | 37.04248 | -4.80063 | 7195 ft | 252 kts | 178° |
| 2026-05-06 18:41 | 37.02495 | -4.80042 | 7189 ft | 253 kts | 178° |
| 2026-05-06 18:42 | 37.00719 | -4.80022 | 7193 ft | 254 kts | 178° |
| 2026-05-06 18:42 | 36.98945 | -4.80003 | 7028 ft | 256 kts | 178° |
| 2026-05-06 18:42 | 36.97169 | -4.79984 | 6737 ft | 255 kts | 178° |
| 2026-05-06 18:42 | 36.95393 | -4.79962 | 6462 ft | 253 kts | 178° |
| 2026-05-06 18:43 | 36.93657 | -4.79942 | 6303 ft | 245 kts | 178° |
| 2026-05-06 18:43 | 36.91985 | -4.79923 | 6248 ft | 237 kts | 178° |
| 2026-05-06 18:43 | 36.90329 | -4.79903 | 6093 ft | 234 kts | 178° |
| 2026-05-06 18:43 | 36.88721 | -4.79697 | 5835 ft | 234 kts | 157° |
| 2026-05-06 18:44 | 36.87417 | -4.78596 | 5592 ft | 225 kts | 130° |
| 2026-05-06 18:44 | 36.86373 | -4.77205 | 5445 ft | 215 kts | 138° |
| 2026-05-06 18:44 | 36.85148 | -4.76138 | 5133 ft | 216 kts | 149° |
| 2026-05-06 18:44 | 36.83827 | -4.75223 | 4853 ft | 220 kts | 149° |
| 2026-05-06 18:45 | 36.82490 | -4.74278 | 4625 ft | 221 kts | 148° |
| 2026-05-06 18:45 | 36.81136 | -4.73331 | 4401 ft | 220 kts | 149° |
| 2026-05-06 18:45 | 36.79798 | -4.72417 | 4143 ft | 220 kts | 149° |
| 2026-05-06 18:45 | 36.78909 | -4.71800 | 3973 ft | 219 kts | 149° |
| 2026-05-06 18:46 | 36.77168 | -4.70526 | 3632 ft | 217 kts | 139° |
| 2026-05-06 18:46 | 36.76239 | -4.69074 | 3317 ft | 212 kts | 111° |
| 2026-05-06 18:46 | 36.75774 | -4.67386 | 3145 ft | 202 kts | 105° |
| 2026-05-06 18:46 | 36.75357 | -4.65819 | 3050 ft | 181 kts | 109° |
| 2026-05-06 18:47 | 36.74871 | -4.64399 | 2598 ft | 180 kts | 113° |
| 2026-05-06 18:47 | 36.74311 | -4.63013 | 2196 ft | 175 kts | 116° |
| 2026-05-06 18:47 | 36.73759 | -4.61742 | 1980 ft | 155 kts | 117° |
| 2026-05-06 18:47 | 36.73268 | -4.60610 | 1689 ft | 145 kts | 116° |
| 2026-05-06 18:48 | 36.72821 | -4.59535 | 1428 ft | 130 kts | 115° |
| 2026-05-06 18:48 | 36.72416 | -4.58554 | 1205 ft | 128 kts | 115° |
| 2026-05-06 18:48 | 36.71987 | -4.57539 | 1074 ft | 132 kts | 116° |
| 2026-05-06 18:48 | 36.71536 | -4.56529 | 1082 ft | 140 kts | 119° |
| 2026-05-06 18:49 | 36.71041 | -4.55437 | 903 ft | 145 kts | 115° |
| 2026-05-06 18:49 | 36.70604 | -4.54325 | 718 ft | 141 kts | 116° |
| 2026-05-06 18:49 | 36.70156 | -4.53284 | 539 ft | 132 kts | 115° |
| 2026-05-06 18:49 | 36.69740 | -4.52264 | 363 ft | 131 kts | 115° |
| 2026-05-06 18:50 | 36.69307 | -4.51282 | 189 ft | 129 kts | 112° |
| 2026-05-06 18:50 | 36.68901 | -4.50298 | 68 ft | 127 kts | 116° |
| 2026-05-06 18:50 | 36.68543 | -4.49429 | 64 ft | 92 kts | 121° |
| 2026-05-06 18:50 | 36.68312 | -4.48890 | 64 ft | 44 kts | 118° |
| 2026-05-06 18:51 | 36.68164 | -4.48608 | 64 ft | 35 kts | 136° |
| 2026-05-06 18:51 | 36.68059 | -4.48512 | 64 ft | 0 kts | 148° |
| 2026-05-06 18:51 | 36.68055 | -4.48509 | 64 ft | 2 kts | 147° |
| 2026-05-06 18:52 | 36.68012 | -4.48480 | 64 ft | 10 kts | 158° |
| 2026-05-06 18:52 | 36.67930 | -4.48479 | 64 ft | 12 kts | 201° |
| 2026-05-06 18:52 | 36.67883 | -4.48507 | 64 ft | 0 kts | 202° |
| 2026-05-06 18:52 | 36.67881 | -4.48508 | 64 ft | 0 kts | 202° |
| 2026-05-06 18:53 | 36.67880 | -4.48509 | 64 ft | 0 kts | 202° |
| 2026-05-06 18:53 | 36.67863 | -4.48517 | 64 ft | 4 kts | 205° |
| 2026-05-06 18:53 | 36.67834 | -4.48561 | 64 ft | 8 kts | 263° |
| 2026-05-06 18:53 | 36.67854 | -4.48637 | 64 ft | 10 kts | 294° |
| 2026-05-06 18:54 | 36.67888 | -4.48719 | 64 ft | 11 kts | 296° |
| 2026-05-06 18:54 | 36.67925 | -4.48811 | 64 ft | 12 kts | 297° |
| 2026-05-06 18:54 | 36.67967 | -4.48910 | 64 ft | 13 kts | 297° |
| 2026-05-06 18:54 | 36.68011 | -4.49021 | 64 ft | 14 kts | 296° |
| 2026-05-06 18:55 | 36.68064 | -4.49139 | 64 ft | 16 kts | 298° |
| 2026-05-06 18:55 | 36.68118 | -4.49267 | 64 ft | 17 kts | 297° |
| 2026-05-06 18:55 | 36.68166 | -4.49389 | 64 ft | 11 kts | 291° |
| 2026-05-06 18:55 | 36.68140 | -4.49474 | 64 ft | 11 kts | 227° |
| 2026-05-06 18:56 | 36.68074 | -4.49544 | 64 ft | 12 kts | 219° |
| 2026-05-06 18:56 | 36.68003 | -4.49621 | 64 ft | 14 kts | 219° |
| 2026-05-06 18:56 | 36.67929 | -4.49706 | 64 ft | 15 kts | 223° |
| 2026-05-06 18:56 | 36.67860 | -4.49747 | 64 ft | 10 kts | 141° |
| 2026-05-06 18:57 | 36.67815 | -4.49681 | 64 ft | 8 kts | 131° |
| 2026-05-06 18:57 | 36.67806 | -4.49669 | 64 ft | 0 kts | 130° |